Time;durP1;ratioP1;P1;durP2;ratioP2;P2;SDS_P1;SDS_P2;PMS_P1;PMS_P2;Temp;Humidity;BMP_temperature;BMP_pressure;BME280_temperature;BME280_humidity;BME280_pressure;Samples;Min_cycle;Max_cycle;Signal;HPM_P1;HPM_P2
2023/10/08 00:02:07;;;;;;;10.63;3.95;;;14.70;92.80;;;;;;4992451;28;20034;-77
2023/10/08 00:04:37;;;;;;;10.10;3.47;;;14.70;92.60;;;;;;4990872;28;20041;-77
2023/10/08 00:07:09;;;;;;;14.70;3.85;;;14.70;92.60;;;;;;4992609;28;20032;-78
2023/10/08 00:09:51;;;;;;;13.85;4.40;;;14.70;92.70;;;;;;4998476;28;20019;-78
2023/10/08 00:12:20;;;;;;;7.47;3.03;;;14.70;92.80;;;;;;4996996;28;20027;-78
2023/10/08 00:14:54;;;;;;;9.50;4.47;;;14.60;92.90;;;;;;4994454;28;20556;-78
2023/10/08 00:17:23;;;;;;;10.95;3.60;;;14.60;92.90;;;;;;4989788;28;20034;-76
2023/10/08 00:20:01;;;;;;;10.18;3.15;;;14.60;93.00;;;;;;4985222;28;20398;-77
2023/10/08 00:22:28;;;;;;;12.57;3.17;;;14.60;93.00;;;;;;4991270;28;20100;-76
2023/10/08 00:25:11;;;;;;;13.55;2.85;;;14.60;93.10;;;;;;4984907;28;20030;-76
2023/10/08 00:27:38;;;;;;;11.40;3.45;;;14.60;93.10;;;;;;5003757;28;20505;-76
2023/10/08 00:30:13;;;;;;;14.40;4.00;;;14.60;93.10;;;;;;4986115;28;20452;-76
2023/10/08 00:32:39;;;;;;;6.82;2.67;;;14.50;93.10;;;;;;4988074;28;20026;-77
2023/10/08 00:35:13;;;;;;;10.48;2.95;;;14.60;93.10;;;;;;4985165;28;20062;-77
2023/10/08 00:37:51;;;;;;;7.68;2.58;;;14.50;93.10;;;;;;4981248;28;20104;-77
2023/10/08 00:40:23;;;;;;;7.30;2.53;;;14.60;93.20;;;;;;4989039;28;20026;-76
2023/10/08 00:42:56;;;;;;;13.75;3.58;;;14.60;93.10;;;;;;4985092;28;20370;-76
2023/10/08 00:45:22;;;;;;;12.45;3.55;;;14.50;93.10;;;;;;4988267;28;20030;-77
2023/10/08 00:47:54;;;;;;;11.68;2.85;;;14.60;93.10;;;;;;4988065;28;20053;-76
2023/10/08 00:50:42;;;;;;;7.35;2.67;;;14.60;92.90;;;;;;4984339;28;20046;-76
2023/10/08 00:53:23;;;;;;;9.02;3.20;;;14.60;92.70;;;;;;4988908;28;20041;-76
2023/10/08 00:56:04;;;;;;;14.40;2.88;;;14.60;92.60;;;;;;4992023;28;20018;-77
2023/10/08 00:58:41;;;;;;;11.32;3.20;;;14.60;92.60;;;;;;4992365;28;20033;-77
2023/10/08 01:01:10;;;;;;;11.63;3.53;;;14.60;92.50;;;;;;4991937;28;20066;-77
2023/10/08 01:03:44;;;;;;;9.75;3.25;;;14.60;92.40;;;;;;4991613;28;20019;-77
2023/10/08 01:06:20;;;;;;;12.93;3.05;;;14.60;92.30;;;;;;4992486;28;20046;-77
2023/10/08 01:08:54;;;;;;;9.65;2.97;;;14.60;92.20;;;;;;4993244;28;20090;-77
2023/10/08 01:14:08;;;;;;;9.77;2.80;;;14.60;92.00;;;;;;4993467;28;20457;-77
2023/10/08 01:16:34;;;;;;;10.50;3.30;;;14.70;91.90;;;;;;4994274;28;20030;-77
2023/10/08 01:19:19;;;;;;;9.93;2.97;;;14.60;92.10;;;;;;4989184;28;20023;-76
2023/10/08 01:21:45;;;;;;;9.90;2.72;;;14.70;91.80;;;;;;4993441;28;20054;-77
2023/10/08 01:24:17;;;;;;;8.13;3.25;;;14.60;91.80;;;;;;4990956;28;20508;-77
2023/10/08 01:26:45;;;;;;;14.82;2.97;;;14.70;91.80;;;;;;4995167;28;20043;-77
2023/10/08 01:29:18;;;;;;;6.65;2.35;;;14.70;91.70;;;;;;4996880;28;20024;-78
2023/10/08 01:31:53;;;;;;;;;;;14.70;91.80;;;;;;4998472;28;20057;-77
2023/10/08 01:34:19;;;;;;;12.77;3.47;;;14.60;91.60;;;;;;4995755;28;19913;-76
2023/10/08 01:36:48;;;;;;;9.32;2.50;;;14.60;91.80;;;;;;4992864;28;20038;-77
2023/10/08 01:39:17;;;;;;;10.25;3.08;;;14.60;91.70;;;;;;4993072;28;20022;-77
2023/10/08 01:41:44;;;;;;;13.27;3.08;;;14.60;91.60;;;;;;4994251;28;20037;-77
2023/10/08 01:44:25;;;;;;;10.93;2.55;;;14.60;91.70;;;;;;4990234;28;20037;-77
2023/10/08 01:46:59;;;;;;;11.73;3.28;;;14.60;91.80;;;;;;4992253;28;20034;-76
2023/10/08 01:49:34;;;;;;;12.35;3.05;;;14.60;91.80;;;;;;4990924;28;20061;-77
2023/10/08 01:52:24;;;;;;;9.15;3.30;;;14.60;91.80;;;;;;4988941;28;20026;-76
2023/10/08 01:54:54;;;;;;;10.57;3.30;;;14.60;91.80;;;;;;4991292;28;20057;-76
2023/10/08 01:57:19;;;;;;;13.75;3.28;;;14.60;91.80;;;;;;5001093;28;20033;-78
2023/10/08 01:59:54;;;;;;;9.80;3.03;;;14.50;91.80;;;;;;4998204;28;20046;-78
2023/10/08 02:02:22;;;;;;;10.45;3.15;;;14.50;91.90;;;;;;5000841;28;20262;-79
2023/10/08 02:04:51;;;;;;;9.13;2.85;;;14.50;91.90;;;;;;5001195;28;20026;-78
2023/10/08 02:07:16;;;;;;;8.63;2.80;;;14.50;91.90;;;;;;5005642;28;20236;-78
2023/10/08 02:09:45;;;;;;;10.80;3.53;;;14.50;91.90;;;;;;5006166;28;20022;-79
2023/10/08 02:12:16;;;;;;;7.45;2.60;;;14.50;91.90;;;;;;5000864;28;20026;-79
2023/10/08 02:14:51;;;;;;;9.73;3.08;;;14.50;91.90;;;;;;5013530;28;20512;-80
2023/10/08 02:17:17;;;;;;;11.00;3.90;;;14.50;91.90;;;;;;5004714;28;20038;-78
2023/10/08 02:19:49;;;;;;;9.90;2.72;;;14.50;92.00;;;;;;5003331;28;20045;-78
2023/10/08 02:22:14;;;;;;;10.05;2.85;;;14.50;91.90;;;;;;5005479;28;20022;-79
2023/10/08 02:24:43;;;;;;;10.63;3.20;;;14.50;91.90;;;;;;5004658;28;20027;-78
2023/10/08 02:27:15;;;;;;;12.80;3.25;;;14.40;92.20;;;;;;5002576;28;20030;-78
2023/10/08 02:29:41;;;;;;;7.75;2.55;;;14.40;91.90;;;;;;5002862;28;20027;-79
2023/10/08 02:32:22;;;;;;;10.85;3.00;;;14.40;92.00;;;;;;5001910;28;20034;-78
2023/10/08 02:34:48;;;;;;;8.48;2.70;;;14.40;92.00;;;;;;5001255;28;20049;-77
2023/10/08 02:37:19;;;;;;;10.73;3.42;;;14.40;92.10;;;;;;4997209;28;20034;-79
2023/10/08 02:39:48;;;;;;;14.30;2.88;;;14.40;92.10;;;;;;5005129;28;20034;-79
2023/10/08 02:42:14;;;;;;;8.43;3.10;;;14.40;92.10;;;;;;5000185;28;20026;-78
2023/10/08 02:44:43;;;;;;;8.73;3.03;;;14.40;92.10;;;;;;5002072;28;20034;-78
2023/10/08 02:47:20;;;;;;;11.15;3.00;;;14.40;92.40;;;;;;4999540;28;21605;-78
2023/10/08 02:49:48;;;;;;;8.80;3.33;;;14.30;92.10;;;;;;4999132;28;20093;-77
2023/10/08 02:52:32;;;;;;;10.38;2.67;;;14.30;92.10;;;;;;4998349;28;20058;-77
2023/10/08 02:55:01;;;;;;;11.50;3.72;;;14.30;92.20;;;;;;5000442;28;20026;-77
2023/10/08 02:57:35;;;;;;;10.93;3.00;;;14.40;92.30;;;;;;5001048;28;20030;-77
2023/10/08 03:00:04;;;;;;;8.18;3.03;;;14.30;92.30;;;;;;4998754;28;20062;-77
2023/10/08 03:02:39;;;;;;;8.95;3.08;;;14.30;92.40;;;;;;4995570;28;20022;-77
2023/10/08 03:05:12;;;;;;;8.63;3.40;;;14.20;92.60;;;;;;4997174;28;20029;-78
2023/10/08 03:07:39;;;;;;;10.93;4.03;;;14.20;92.70;;;;;;4989625;28;20556;-77
2023/10/08 03:10:17;;;;;;;8.15;2.78;;;14.20;92.80;;;;;;4997884;28;20019;-79
2023/10/08 03:12:52;;;;;;;14.50;3.88;;;14.20;92.80;;;;;;5000619;28;20033;-77
2023/10/08 03:15:31;;;;;;;9.27;3.15;;;14.10;93.00;;;;;;5004360;28;20026;-78
2023/10/08 03:18:10;;;;;;;12.98;3.58;;;14.10;93.10;;;;;;4999113;28;20389;-78
2023/10/08 03:20:41;;;;;;;9.07;2.67;;;14.10;93.10;;;;;;5004608;28;20030;-77
2023/10/08 03:23:22;;;;;;;10.85;3.15;;;14.10;93.10;;;;;;4998104;28;20504;-77
2023/10/08 03:25:50;;;;;;;12.73;2.85;;;14.00;93.20;;;;;;4993648;28;20010;-77
2023/10/08 03:28:16;;;;;;;6.95;2.90;;;14.00;93.30;;;;;;4991859;28;20030;-77
2023/10/08 03:33:39;;;;;;;10.18;3.58;;;14.00;93.50;;;;;;4988492;28;20033;-76
2023/10/08 03:36:20;;;;;;;12.35;2.50;;;13.90;93.80;;;;;;4988947;28;20032;-77
2023/10/08 03:38:58;;;;;;;12.68;2.90;;;13.90;93.90;;;;;;4991151;28;20105;-76
2023/10/08 03:41:27;;;;;;;9.40;2.97;;;13.80;94.00;;;;;;4989618;28;20049;-76
2023/10/08 03:44:05;;;;;;;18.08;3.17;;;13.80;94.10;;;;;;4986106;28;20177;-76
2023/10/08 03:46:32;;;;;;;8.98;2.92;;;13.80;94.30;;;;;;4988739;28;20018;-77
2023/10/08 03:51:51;;;;;;;8.00;2.92;;;13.70;94.80;;;;;;4985985;28;20018;-76
2023/10/08 03:57:19;;;;;;;8.35;2.97;;;13.70;94.90;;;;;;4990873;28;20104;-77
2023/10/08 03:59:48;;;;;;;10.95;3.00;;;13.60;94.90;;;;;;4996560;28;20020;-77
2023/10/08 04:02:30;;;;;;;11.57;3.33;;;13.60;95.00;;;;;;4997978;28;20034;-78
2023/10/08 04:04:59;;;;;;;12.32;3.05;;;13.60;95.10;;;;;;4995186;28;20045;-77
2023/10/08 04:11:07;;;;;;;8.55;2.60;;;13.50;95.30;;;;;;5000487;28;20030;-76
2023/10/08 04:13:24;;;;;;;10.13;2.75;;;13.50;95.40;;;;;;4995386;28;20436;-77
2023/10/08 04:15:50;;;;;;;8.93;2.90;;;13.50;95.50;;;;;;5010788;28;20117;-77
2023/10/08 04:18:20;;;;;;;10.00;3.08;;;13.50;95.60;;;;;;4995332;28;20053;-77
2023/10/08 04:21:04;;;;;;;9.63;3.33;;;13.40;95.70;;;;;;4996641;28;20026;-77
2023/10/08 04:23:31;;;;;;;11.57;3.15;;;13.40;95.80;;;;;;4996466;28;20045;-78
2023/10/08 04:26:03;;;;;;;9.02;2.63;;;13.40;95.80;;;;;;5002321;28;20049;-78
2023/10/08 04:28:35;;;;;;;10.48;2.78;;;13.40;95.90;;;;;;5000803;28;20019;-77
2023/10/08 04:31:14;;;;;;;14.60;3.58;;;13.40;96.00;;;;;;4993947;28;20022;-77
2023/10/08 04:33:45;;;;;;;12.52;3.05;;;13.40;96.00;;;;;;4999084;28;20030;-77
2023/10/08 04:36:23;;;;;;;15.52;3.15;;;13.40;96.10;;;;;;4998440;28;20030;-78
2023/10/08 04:38:53;;;;;;;14.05;3.00;;;13.30;96.20;;;;;;4995886;28;20054;-77
2023/10/08 04:41:19;;;;;;;10.65;3.65;;;13.30;96.30;;;;;;5002095;28;20025;-77
2023/10/08 04:43:50;;;;;;;14.93;3.72;;;13.30;96.50;;;;;;4997903;28;20030;-77
2023/10/08 04:46:19;;;;;;;11.55;3.20;;;13.20;96.60;;;;;;5002659;28;20023;-78
2023/10/08 04:48:49;;;;;;;11.10;3.22;;;13.30;96.80;;;;;;5000028;28;20027;-77
2023/10/08 04:51:21;;;;;;;9.27;2.88;;;13.20;96.90;;;;;;5000864;28;20034;-78
2023/10/08 04:53:47;;;;;;;11.13;3.35;;;13.20;97.00;;;;;;5001611;28;20034;-79
2023/10/08 04:56:23;;;;;;;13.13;3.20;;;13.20;97.00;;;;;;5004184;28;20023;-77
2023/10/08 04:58:51;;;;;;;9.60;3.45;;;13.20;97.10;;;;;;5000273;28;20097;-77
2023/10/08 05:23:20;;;;;;;8.95;2.95;;;13.10;97.90;;;;;;4998146;28;20080;-77
2023/10/08 05:25:58;;;;;;;12.43;2.67;;;13.10;98.20;;;;;;4996405;28;20032;-76
2023/10/08 05:28:24;;;;;;;12.38;3.95;;;13.10;98.20;;;;;;4994985;28;20122;-76
2023/10/08 05:42:05;;;;;;;15.13;2.42;;;13.10;98.20;;;;;;4998773;28;20027;-77
2023/10/08 05:44:39;;;;;;;7.10;2.50;;;13.10;98.20;;;;;;4998918;28;20026;-76
2023/10/08 05:52:53;;;;;;;12.63;3.08;;;13.10;98.30;;;;;;4994736;28;20121;-77
2023/10/08 05:55:25;;;;;;;7.70;3.20;;;13.10;98.40;;;;;;4992357;28;20034;-76
2023/10/08 06:06:36;;;;;;;13.43;3.85;;;13.10;98.80;;;;;;5005353;28;20119;-77
2023/10/08 06:09:20;;;;;;;13.48;3.13;;;13.20;98.90;;;;;;4999545;28;20041;-77
2023/10/08 06:14:52;;;;;;;13.88;3.47;;;13.20;98.90;;;;;;4994894;28;20093;-77
2023/10/08 06:17:34;;;;;;;11.70;3.75;;;13.20;98.90;;;;;;5001787;28;20429;-77
2023/10/08 06:20:09;;;;;;;9.95;3.35;;;13.20;98.90;;;;;;4999047;28;20031;-76
2023/10/08 06:22:44;;;;;;;9.18;3.35;;;13.30;98.90;;;;;;4980739;28;20034;-71
2023/10/08 06:25:17;;;;;;;12.23;4.13;;;13.30;99.00;;;;;;4985896;28;20109;-71
2023/10/08 06:27:53;;;;;;;10.88;3.58;;;13.30;99.20;;;;;;4983142;28;20025;-72
2023/10/08 06:30:19;;;;;;;9.70;3.80;;;13.30;99.20;;;;;;4980288;28;20022;-72
2023/10/08 06:32:45;;;;;;;11.18;3.40;;;13.30;99.20;;;;;;4981305;28;20049;-72
2023/10/08 06:35:17;;;;;;;13.15;2.88;;;13.40;99.30;;;;;;4983795;28;20034;-72
2023/10/08 06:37:44;;;;;;;13.05;3.13;;;13.40;99.40;;;;;;4986731;28;20078;-72
2023/10/08 06:40:40;;;;;;;11.13;3.63;;;13.40;99.50;;;;;;4981978;28;20219;-72
2023/10/08 06:42:59;;;;;;;11.63;3.67;;;13.40;99.60;;;;;;4983811;28;20205;-72
2023/10/08 06:45:30;;;;;;;12.20;4.13;;;13.50;99.60;;;;;;4983347;28;20085;-72
2023/10/08 06:47:57;;;;;;;9.90;3.53;;;13.50;99.60;;;;;;4981509;28;20022;-72
2023/10/08 06:50:22;;;;;;;10.77;3.97;;;13.60;99.60;;;;;;4987280;28;20026;-71
2023/10/08 06:52:49;;;;;;;13.55;3.30;;;13.60;99.60;;;;;;4986844;28;20635;-71
2023/10/08 06:55:17;;;;;;;15.23;4.93;;;13.60;99.60;;;;;;4983389;28;20023;-72
2023/10/08 06:57:43;;;;;;;11.13;3.65;;;13.70;99.60;;;;;;4987644;28;20583;-72
2023/10/08 07:00:33;;;;;;;17.30;4.65;;;13.70;99.80;;;;;;4986342;28;20050;-72
2023/10/08 07:03:01;;;;;;;10.77;3.00;;;13.70;99.80;;;;;;4975746;28;20034;-72
2023/10/08 07:05:28;;;;;;;14.70;3.78;;;13.80;99.80;;;;;;4975062;28;20030;-71
2023/10/08 07:07:54;;;;;;;14.32;3.20;;;13.90;99.70;;;;;;4984844;28;20038;-72
2023/10/08 07:10:23;;;;;;;8.98;2.95;;;14.00;99.50;;;;;;5000917;28;20342;-71
2023/10/08 07:12:52;;;;;;;10.93;2.78;;;14.10;99.30;;;;;;4981225;28;20502;-72
2023/10/08 07:15:23;;;;;;;14.07;3.05;;;14.20;99.20;;;;;;4984763;28;20027;-77
2023/10/08 07:17:51;;;;;;;10.52;3.00;;;14.30;98.90;;;;;;4998134;28;20053;-77
2023/10/08 07:20:22;;;;;;;11.20;3.63;;;14.40;98.80;;;;;;4999725;28;20026;-76
2023/10/08 07:22:54;;;;;;;13.25;3.05;;;14.60;98.80;;;;;;4993558;28;20181;-76
2023/10/08 07:25:22;;;;;;;9.77;3.20;;;14.70;98.60;;;;;;4986558;28;20118;-77
2023/10/08 07:27:54;;;;;;;12.98;3.35;;;14.80;98.40;;;;;;4986560;28;20022;-77
2023/10/08 07:30:26;;;;;;;10.88;2.85;;;14.90;98.10;;;;;;4983884;28;20275;-77
2023/10/08 07:33:03;;;;;;;10.70;3.13;;;15.00;98.00;;;;;;4981492;28;20030;-78
2023/10/08 07:35:30;;;;;;;10.57;3.10;;;15.10;98.00;;;;;;4985890;28;20061;-76
2023/10/08 07:37:56;;;;;;;9.25;2.75;;;15.30;97.80;;;;;;4984536;28;20030;-76
2023/10/08 07:40:29;;;;;;;15.55;3.67;;;15.30;97.70;;;;;;4987641;28;20030;-77
2023/10/08 07:43:08;;;;;;;13.52;4.07;;;15.50;97.60;;;;;;5003970;28;20030;-77
2023/10/08 07:45:35;;;;;;;11.35;3.35;;;15.60;97.70;;;;;;4990010;28;20023;-77
2023/10/08 07:48:01;;;;;;;8.20;2.75;;;15.70;97.70;;;;;;4990886;28;20030;-77
2023/10/08 07:50:40;;;;;;;11.38;2.80;;;15.80;97.40;;;;;;4992623;28;20030;-78
2023/10/08 07:53:06;;;;;;;10.90;3.45;;;16.00;97.10;;;;;;4990389;28;20057;-77
2023/10/08 07:55:35;;;;;;;11.63;3.78;;;16.20;96.80;;;;;;4993291;28;20063;-77
2023/10/08 07:58:03;;;;;;;9.48;3.25;;;16.30;96.70;;;;;;4991828;28;20160;-77
2023/10/08 08:00:38;;;;;;;9.75;2.67;;;16.40;96.60;;;;;;4991553;28;20030;-78
2023/10/08 08:03:13;;;;;;;6.93;2.75;;;16.60;96.50;;;;;;4991711;28;20402;-77
2023/10/08 08:05:46;;;;;;;12.20;3.72;;;16.70;96.20;;;;;;4992176;28;20109;-79
2023/10/08 08:08:22;;;;;;;14.30;3.50;;;16.80;96.00;;;;;;4995911;28;20018;-78
2023/10/08 08:10:49;;;;;;;16.77;3.28;;;16.90;95.80;;;;;;4992457;28;20482;-78
2023/10/08 08:13:20;;;;;;;10.75;2.90;;;17.00;95.90;;;;;;4994239;28;20033;-77
2023/10/08 08:15:50;;;;;;;13.48;3.53;;;17.10;95.90;;;;;;4995174;28;20416;-78
2023/10/08 08:18:22;;;;;;;13.43;3.92;;;17.20;95.50;;;;;;4991381;28;20520;-76
2023/10/08 08:20:51;;;;;;;10.73;3.88;;;17.30;95.20;;;;;;4989230;28;20488;-78
2023/10/08 08:23:17;;;;;;;18.45;4.22;;;17.30;95.20;;;;;;4992750;28;20060;-78
2023/10/08 08:26:13;;;;;;;12.48;4.15;;;17.40;95.00;;;;;;4989911;28;20041;-77
2023/10/08 08:28:41;;;;;;;12.75;3.38;;;17.50;95.10;;;;;;4989995;28;20026;-76
2023/10/08 08:31:16;;;;;;;12.55;3.53;;;17.60;94.70;;;;;;4987072;28;20507;-76
2023/10/08 08:33:56;;;;;;;7.45;3.75;;;17.70;94.50;;;;;;4991776;28;20014;-77
2023/10/08 08:36:27;;;;;;;12.63;4.65;;;17.70;94.50;;;;;;4988909;28;20026;-77
2023/10/08 08:38:53;;;;;;;12.32;4.25;;;17.70;94.70;;;;;;4987960;28;21017;-79
2023/10/08 08:41:23;;;;;;;11.48;3.80;;;17.70;94.60;;;;;;4989258;28;20070;-77
2023/10/08 08:43:56;;;;;;;15.20;3.85;;;17.80;94.40;;;;;;4996791;28;20019;-78
2023/10/08 08:46:35;;;;;;;;;;;17.80;94.20;;;;;;4991313;28;20109;-78
2023/10/08 08:49:18;;;;;;;8.50;2.70;;;17.90;93.90;;;;;;4986298;28;19924;-76
2023/10/08 08:51:48;;;;;;;9.50;3.63;;;17.90;93.70;;;;;;4988431;28;20524;-77
2023/10/08 08:54:16;;;;;;;14.55;4.28;;;18.10;93.80;;;;;;4997813;23;20067;-72
2023/10/08 08:56:59;;;;;;;12.48;3.50;;;18.10;93.80;;;;;;4969480;28;20086;-72
2023/10/08 08:59:26;;;;;;;17.65;4.47;;;18.20;93.70;;;;;;4968308;28;20102;-73
2023/10/08 09:02:08;;;;;;;11.07;3.63;;;18.30;93.50;;;;;;4969405;28;20030;-73
2023/10/08 09:04:37;;;;;;;10.43;3.55;;;18.40;93.20;;;;;;4988300;28;20489;-73
2023/10/08 09:07:12;;;;;;;12.93;3.38;;;18.50;92.90;;;;;;4988535;28;20022;-73
2023/10/08 09:09:39;;;;;;;10.88;3.67;;;18.70;92.30;;;;;;4987649;28;20019;-72
2023/10/08 09:12:16;;;;;;;12.95;3.60;;;18.90;91.80;;;;;;4990109;28;20432;-72
2023/10/08 09:14:44;;;;;;;12.25;4.07;;;19.10;90.60;;;;;;4992604;28;20030;-72
2023/10/08 09:17:15;;;;;;;9.93;3.30;;;19.20;90.50;;;;;;4992110;28;20052;-74
2023/10/08 09:19:40;;;;;;;7.70;3.03;;;19.30;90.00;;;;;;4990546;28;20485;-72
2023/10/08 09:22:08;;;;;;;10.30;3.15;;;19.50;89.20;;;;;;4985586;28;20030;-72
2023/10/08 09:24:41;;;;;;;12.13;3.42;;;19.60;87.70;;;;;;4984621;28;20030;-74
2023/10/08 09:27:08;;;;;;;9.75;2.92;;;19.80;86.70;;;;;;4991016;28;20031;-75
2023/10/08 09:29:39;;;;;;;10.85;3.15;;;20.00;85.80;;;;;;4992036;28;20066;-74
2023/10/08 09:32:07;;;;;;;11.85;2.70;;;20.10;86.20;;;;;;4990356;28;20195;-75
2023/10/08 09:34:36;;;;;;;9.88;2.97;;;20.10;86.20;;;;;;4992699;28;20799;-74
2023/10/08 09:37:03;;;;;;;13.52;3.58;;;20.20;86.10;;;;;;4990534;28;20026;-75
2023/10/08 09:39:34;;;;;;;10.52;3.05;;;20.30;86.00;;;;;;4985845;28;20584;-74
2023/10/08 09:42:11;;;;;;;16.45;3.50;;;20.40;83.10;;;;;;4985556;28;20504;-74
2023/10/08 09:44:37;;;;;;;11.50;2.80;;;20.50;81.90;;;;;;4993342;28;20026;-74
2023/10/08 09:47:12;;;;;;;13.90;3.58;;;20.60;82.20;;;;;;4989584;28;20026;-74
2023/10/08 09:49:56;;;;;;;17.77;3.53;;;20.70;81.40;;;;;;4988480;28;20019;-77
2023/10/08 09:52:38;;;;;;;17.73;3.22;;;20.90;81.00;;;;;;4992374;28;20563;-74
2023/10/08 09:55:10;;;;;;;13.23;3.28;;;21.00;81.10;;;;;;4991747;28;20131;-73
2023/10/08 09:57:41;;;;;;;14.48;3.88;;;21.00;81.60;;;;;;4994585;28;20077;-74
2023/10/08 10:00:15;;;;;;;7.50;3.15;;;21.10;82.60;;;;;;4991401;28;20520;-74
2023/10/08 10:02:44;;;;;;;8.15;3.17;;;21.20;83.20;;;;;;4985082;28;20018;-74
2023/10/08 10:05:24;;;;;;;9.52;2.85;;;21.30;83.70;;;;;;4989835;28;20022;-74
2023/10/08 10:07:49;;;;;;;11.57;3.00;;;21.40;83.30;;;;;;4991510;28;20105;-75
2023/10/08 10:10:38;;;;;;;11.75;3.15;;;21.50;83.00;;;;;;4989654;28;20081;-74
2023/10/08 10:13:10;;;;;;;14.88;3.65;;;21.60;83.20;;;;;;5004570;28;20374;-74
2023/10/08 10:15:41;;;;;;;17.15;4.18;;;21.60;83.80;;;;;;4990880;28;20080;-74
2023/10/08 10:18:28;;;;;;;12.35;3.15;;;21.70;81.00;;;;;;4987399;28;20624;-73
2023/10/08 10:21:12;;;;;;;12.88;3.78;;;21.80;79.30;;;;;;4990798;28;20038;-73
2023/10/08 10:23:39;;;;;;;;;;;22.00;78.20;;;;;;4989645;28;20034;-74
2023/10/08 10:26:22;;;;;;;12.70;3.72;;;22.00;76.80;;;;;;4986445;28;19952;-72
2023/10/08 10:29:14;;;;;;;10.38;3.15;;;22.00;77.40;;;;;;4989184;28;20026;-73
2023/10/08 10:31:58;;;;;;;12.13;2.83;;;22.20;76.50;;;;;;4991375;28;20519;-73
2023/10/08 10:34:27;;;;;;;11.13;3.28;;;22.30;74.60;;;;;;4989922;28;20061;-73
2023/10/08 10:37:02;;;;;;;27.20;4.05;;;22.50;74.10;;;;;;4992286;28;20081;-73
2023/10/08 10:39:32;;;;;;;14.18;3.20;;;22.60;73.60;;;;;;4991523;28;20022;-73
2023/10/08 10:42:06;;;;;;;17.25;4.30;;;22.70;73.20;;;;;;4983012;28;20062;-71
2023/10/08 10:44:36;;;;;;;15.00;3.83;;;22.80;74.20;;;;;;4988408;28;20138;-74
2023/10/08 10:58:14;;;;;;;11.18;3.50;;;23.00;73.30;;;;;;4991133;28;20088;-75
2023/10/08 11:03:17;;;;;;;14.20;3.00;;;23.10;73.70;;;;;;4994312;28;20022;-75
2023/10/08 11:05:48;;;;;;;12.35;3.85;;;23.20;73.80;;;;;;4988184;28;20019;-74
2023/10/08 11:08:18;;;;;;;16.60;3.58;;;23.20;73.50;;;;;;4986034;28;20081;-75
2023/10/08 11:10:50;;;;;;;20.50;3.38;;;23.20;73.30;;;;;;4994887;28;20025;-76
2023/10/08 11:13:21;;;;;;;16.85;4.40;;;23.30;73.30;;;;;;4984858;28;20034;-76
2023/10/08 11:15:51;;;;;;;15.43;4.05;;;23.50;70.60;;;;;;4989798;28;20026;-74
2023/10/08 11:18:22;;;;;;;12.73;3.75;;;23.60;70.10;;;;;;4991143;28;20049;-73
2023/10/08 11:20:54;;;;;;;16.90;3.95;;;23.80;69.50;;;;;;4987057;28;20830;-73
2023/10/08 11:23:43;;;;;;;11.68;4.05;;;23.90;69.30;;;;;;4991543;28;20034;-74
2023/10/08 11:26:12;;;;;;;12.82;3.60;;;24.10;68.70;;;;;;4988912;28;20050;-73
2023/10/08 11:28:41;;;;;;;16.35;4.07;;;24.10;68.50;;;;;;4984990;28;20026;-73
2023/10/08 11:31:10;;;;;;;17.63;3.75;;;24.20;68.00;;;;;;4990444;28;20552;-73
2023/10/08 11:33:41;;;;;;;13.05;3.35;;;24.30;68.10;;;;;;4986402;28;20023;-72
2023/10/08 11:36:24;;;;;;;11.50;3.40;;;24.30;67.70;;;;;;4987814;28;20068;-74
2023/10/08 11:39:11;;;;;;;12.70;4.00;;;24.30;67.40;;;;;;4987640;28;20018;-74
2023/10/08 11:41:52;;;;;;;17.30;3.85;;;24.30;67.10;;;;;;4985139;28;20080;-74
2023/10/08 11:44:23;;;;;;;10.80;3.60;;;24.30;67.00;;;;;;4984419;28;20393;-74
2023/10/08 11:46:52;;;;;;;8.50;3.33;;;24.30;67.20;;;;;;4987357;28;20022;-73
2023/10/08 11:49:18;;;;;;;12.60;4.03;;;24.20;67.40;;;;;;4987372;28;20043;-74
2023/10/08 11:51:52;;;;;;;13.32;3.67;;;24.20;68.20;;;;;;4991378;28;20042;-74
2023/10/08 11:54:23;;;;;;;;;;;24.20;68.30;;;;;;4986334;28;20030;-74
2023/10/08 11:56:51;;;;;;;17.35;4.32;;;24.20;68.00;;;;;;4987532;28;19909;-74
2023/10/08 11:59:29;;;;;;;15.90;4.25;;;24.20;68.40;;;;;;4987863;28;20034;-74
2023/10/08 12:02:00;;;;;;;12.50;4.30;;;24.10;68.70;;;;;;4987376;28;20030;-73
2023/10/08 12:04:29;;;;;;;11.52;4.03;;;24.10;68.70;;;;;;5000846;28;20086;-74
2023/10/08 12:06:55;;;;;;;16.55;5.35;;;24.10;68.80;;;;;;4989160;28;20026;-73
2023/10/08 12:09:21;;;;;;;17.42;4.38;;;24.10;68.70;;;;;;4988724;28;20343;-74
2023/10/08 12:12:09;;;;;;;15.48;3.67;;;24.10;68.80;;;;;;4983249;28;20042;-74
2023/10/08 12:14:37;;;;;;;11.48;4.13;;;24.20;68.50;;;;;;4987468;28;20519;-74
2023/10/08 12:17:11;;;;;;;10.60;3.67;;;24.20;69.20;;;;;;4985925;28;20430;-74
2023/10/08 12:19:45;;;;;;;13.30;4.85;;;24.20;69.00;;;;;;4989749;28;20030;-73
2023/10/08 12:22:17;;;;;;;17.15;4.20;;;24.20;69.00;;;;;;4983634;28;20410;-73
2023/10/08 12:24:46;;;;;;;11.40;4.30;;;24.20;68.90;;;;;;4988803;28;20033;-73
2023/10/08 12:27:12;;;;;;;10.20;3.80;;;24.20;68.80;;;;;;4988571;28;20368;-74
2023/10/08 12:29:47;;;;;;;13.60;2.78;;;24.20;69.10;;;;;;4988769;28;20026;-73
2023/10/08 12:32:17;;;;;;;11.48;3.85;;;24.20;69.10;;;;;;4989558;28;20026;-73
2023/10/08 12:34:47;;;;;;;13.85;3.72;;;24.10;69.30;;;;;;4986538;28;20050;-73
2023/10/08 12:37:14;;;;;;;13.02;4.30;;;24.10;69.00;;;;;;4984633;28;20547;-73
2023/10/08 12:39:59;;;;;;;12.63;4.15;;;24.10;68.90;;;;;;4988515;28;20106;-73
2023/10/08 12:42:28;;;;;;;12.90;3.97;;;24.00;69.10;;;;;;4989436;28;20468;-73
2023/10/08 12:44:57;;;;;;;19.65;3.95;;;24.00;70.20;;;;;;4988153;28;20030;-73
2023/10/08 12:47:22;;;;;;;12.95;4.03;;;24.00;69.10;;;;;;4985987;28;20022;-73
2023/10/08 12:49:57;;;;;;;13.25;3.63;;;24.00;69.20;;;;;;4991360;28;20035;-74
2023/10/08 12:52:23;;;;;;;19.77;4.18;;;24.00;69.30;;;;;;4991242;28;20022;-74
2023/10/08 12:54:55;;;;;;;12.43;4.28;;;23.90;70.00;;;;;;4990614;28;20114;-73
2023/10/08 12:57:32;;;;;;;18.15;3.90;;;23.90;69.30;;;;;;5004782;28;20025;-74
2023/10/08 13:00:04;;;;;;;17.98;4.38;;;23.90;69.40;;;;;;4991935;28;20493;-74
2023/10/08 13:02:42;;;;;;;23.25;3.53;;;23.90;68.90;;;;;;4991809;28;20402;-74
2023/10/08 13:05:15;;;;;;;22.98;4.50;;;24.00;68.00;;;;;;4987838;28;20456;-74
2023/10/08 13:07:55;;;;;;;18.20;4.60;;;24.00;66.60;;;;;;4992014;28;20025;-74
2023/10/08 13:10:27;;;;;;;18.88;4.47;;;24.10;66.30;;;;;;4992472;28;20112;-74
2023/10/08 13:12:53;;;;;;;15.07;3.67;;;24.10;66.40;;;;;;4990195;28;20049;-75
2023/10/08 13:15:18;;;;;;;16.70;4.03;;;24.20;66.30;;;;;;4991211;28;20034;-74
2023/10/08 13:17:45;;;;;;;27.10;5.75;;;24.20;66.00;;;;;;4989686;28;20038;-74
2023/10/08 13:20:12;;;;;;;14.82;4.47;;;24.20;65.90;;;;;;4989802;28;20444;-74
2023/10/08 13:22:47;;;;;;;15.65;3.60;;;24.10;66.00;;;;;;4990211;28;20031;-74
2023/10/08 13:25:17;;;;;;;12.65;3.75;;;24.20;66.10;;;;;;4992029;28;20062;-74
2023/10/08 13:27:48;;;;;;;16.50;4.03;;;24.10;66.50;;;;;;4988626;28;20023;-74
2023/10/08 13:30:20;;;;;;;10.95;3.92;;;24.10;67.20;;;;;;4987554;28;20089;-74
2023/10/08 13:32:46;;;;;;;19.63;4.50;;;24.10;66.40;;;;;;4989366;28;20468;-73
2023/10/08 13:35:12;;;;;;;17.42;4.55;;;24.10;66.60;;;;;;4989208;28;20120;-74
2023/10/08 13:37:37;;;;;;;18.02;4.05;;;24.10;65.30;;;;;;4988290;28;20042;-73
2023/10/08 13:40:07;;;;;;;11.73;3.90;;;24.20;65.20;;;;;;4985491;28;20136;-73
2023/10/08 13:42:35;;;;;;;13.45;3.55;;;24.10;65.50;;;;;;4990465;28;20057;-73
2023/10/08 13:45:07;;;;;;;13.80;3.97;;;24.10;65.80;;;;;;4987919;28;20034;-74
2023/10/08 13:47:34;;;;;;;17.47;3.93;;;24.10;65.70;;;;;;4984032;28;20085;-73
2023/10/08 13:50:12;;;;;;;17.25;4.55;;;24.10;65.60;;;;;;4985376;28;20157;-72
2023/10/08 13:52:39;;;;;;;23.42;4.82;;;24.10;65.30;;;;;;4989758;28;20083;-73
2023/10/08 13:55:07;;;;;;;14.32;3.33;;;24.10;65.50;;;;;;4990779;28;20154;-73
2023/10/08 13:57:33;;;;;;;13.88;4.65;;;24.10;65.80;;;;;;4988605;28;20297;-73
2023/10/08 14:00:15;;;;;;;13.50;3.72;;;24.20;65.40;;;;;;4987074;28;20037;-73
2023/10/08 14:02:51;;;;;;;13.20;4.22;;;24.20;65.60;;;;;;4988169;28;20038;-73
2023/10/08 14:05:26;;;;;;;12.98;4.13;;;24.30;65.90;;;;;;4986009;28;20045;-74
2023/10/08 14:07:59;;;;;;;18.83;5.03;;;24.30;65.80;;;;;;4987076;28;20042;-73
2023/10/08 14:10:29;;;;;;;22.58;4.55;;;24.30;66.30;;;;;;4991227;28;20019;-73
2023/10/08 14:12:55;;;;;;;15.05;3.95;;;24.30;66.70;;;;;;4991786;28;20111;-73
2023/10/08 14:15:28;;;;;;;11.80;3.83;;;24.20;66.30;;;;;;4991518;28;20026;-73
2023/10/08 14:18:00;;;;;;;;;;;24.20;66.40;;;;;;4993636;28;20030;-73
2023/10/08 14:20:31;;;;;;;14.98;3.72;;;24.20;66.40;;;;;;4990926;28;19924;-73
2023/10/08 14:23:02;;;;;;;12.50;4.43;;;24.30;66.50;;;;;;4992924;28;20389;-73
2023/10/08 14:25:33;;;;;;;12.77;3.92;;;24.20;66.40;;;;;;5006776;28;20014;-73